createdAt,value
2019-04-05T00:00:02.182Z,28.35
2019-04-05T00:02:03.607Z,27.77
2019-04-05T00:04:05.105Z,27.87
2019-04-05T00:06:06.543Z,23.30
2019-04-05T00:08:07.700Z,25.95
2019-04-05T00:10:09.342Z,24.67
2019-04-05T00:12:11.981Z,25.48
2019-04-05T00:14:13.137Z,24.92
2019-04-05T00:16:14.369Z,23.38
2019-04-05T00:18:15.824Z,20.60
2019-04-05T00:20:17.041Z,23.05
2019-04-05T00:22:18.257Z,21.35
2019-04-05T00:24:19.493Z,23.65
2019-04-05T00:26:21.052Z,22.17
2019-04-05T00:28:22.293Z,22.52
2019-04-05T00:30:23.443Z,23.05
2019-04-05T00:32:25.142Z,23.20
2019-04-05T00:34:26.680Z,24.27
2019-04-05T00:36:28.152Z,24.07
2019-04-05T00:38:29.298Z,25.65
2019-04-05T00:40:30.437Z,23.90
2019-04-05T00:42:31.582Z,23.87
2019-04-05T00:44:32.766Z,24.72
2019-04-05T00:46:34.153Z,26.27
2019-04-05T00:48:35.650Z,25.55
2019-04-05T00:50:36.798Z,25.70
2019-04-05T00:52:38.260Z,22.10
2019-04-05T00:54:39.702Z,22.13
2019-04-05T00:56:40.832Z,22.65
2019-04-05T00:58:42.394Z,24.02
2019-04-05T01:00:43.849Z,23.07
2019-04-05T01:02:45.018Z,23.30
2019-04-05T01:04:46.388Z,24.25
2019-04-05T01:06:47.605Z,19.52
2019-04-05T01:08:49.172Z,18.57
2019-04-05T01:10:50.311Z,22.93
2019-04-05T01:12:51.441Z,23.42
2019-04-05T01:14:53.441Z,16.80
2019-04-05T01:16:55.209Z,22.70
2019-04-05T01:21:01.430Z,22.53
2019-04-05T01:23:02.799Z,21.65
2019-04-05T01:25:04.849Z,21.77
2019-04-05T01:27:06.587Z,21.62
2019-04-05T01:31:09.333Z,21.77
2019-04-05T01:33:10.776Z,21.25
2019-04-05T01:35:12.171Z,21.57
2019-04-05T01:37:13.860Z,23.62
2019-04-05T01:39:15.010Z,17.32
2019-04-05T01:41:16.445Z,22.22
2019-04-05T01:43:17.901Z,22.05
2019-04-05T01:45:19.244Z,22.95
2019-04-05T01:47:20.702Z,23.77
2019-04-05T01:49:21.849Z,22.35
2019-04-05T01:51:23.161Z,23.73
2019-04-05T01:53:24.337Z,23.27
2019-04-05T01:55:25.591Z,22.98
2019-04-05T01:57:26.730Z,23.65
2019-04-05T01:59:27.944Z,22.32
2019-04-05T02:01:29.173Z,23.75
2019-04-05T02:03:30.326Z,21.25
2019-04-05T02:05:31.556Z,22.42
2019-04-05T02:07:32.792Z,20.45
2019-04-05T02:09:34.409Z,22.95
2019-04-05T02:11:35.599Z,21.77
2019-04-05T02:13:36.894Z,19.77
2019-04-05T02:15:38.223Z,20.25
2019-04-05T02:17:39.377Z,20.43
2019-04-05T02:19:40.777Z,20.10
2019-04-05T02:21:42.002Z,22.98
2019-04-05T02:23:43.140Z,20.80
2019-04-05T02:25:44.309Z,23.10
2019-04-05T02:27:45.841Z,22.32
2019-04-05T02:29:47.089Z,23.15
2019-04-05T02:31:48.225Z,23.85
2019-04-05T02:33:49.770Z,23.15
2019-04-05T02:35:51.028Z,23.50
2019-04-05T02:37:52.167Z,24.07
2019-04-05T02:39:53.390Z,16.65
2019-04-05T02:41:55.262Z,22.35
2019-04-05T02:43:57.216Z,23.73
2019-04-05T02:45:59.662Z,24.45
2019-04-05T02:48:03.569Z,22.82
2019-04-05T02:50:05.260Z,23.27
2019-04-05T02:54:08.846Z,21.90
2019-04-05T02:56:11.302Z,22.37
2019-04-05T02:58:13.010Z,22.50
2019-04-05T03:00:16.167Z,23.07
2019-04-05T03:02:18.132Z,23.42
2019-04-05T03:04:19.572Z,24.43
2019-04-05T03:06:20.916Z,21.85
2019-04-05T03:08:22.145Z,24.07
2019-04-05T03:11:01.185Z,19.07
2019-04-05T03:13:02.322Z,22.82
2019-04-05T03:15:06.026Z,24.27
2019-04-05T03:17:08.028Z,24.32
2019-04-05T03:19:12.989Z,24.55
2019-04-05T03:21:16.611Z,17.82
2019-04-05T03:23:17.948Z,22.58
2019-04-05T03:25:19.890Z,22.30
2019-04-05T03:27:25.150Z,22.20
2019-04-05T03:29:26.468Z,21.02
2019-04-05T03:31:27.926Z,18.82
2019-04-05T03:33:29.388Z,22.10
2019-04-05T03:35:30.535Z,22.37
2019-04-05T03:37:32.267Z,21.65
2019-04-05T03:39:33.406Z,21.37
2019-04-05T03:41:35.579Z,21.15
2019-04-05T03:43:36.724Z,18.52
2019-04-05T03:45:38.262Z,18.48
2019-04-05T03:47:39.504Z,21.15
2019-04-05T03:49:40.840Z,20.32
2019-04-05T03:51:43.095Z,21.20
2019-04-05T03:53:44.535Z,21.02
2019-04-05T03:55:45.790Z,20.12
2019-04-05T03:57:46.936Z,21.62
2019-04-05T03:59:48.602Z,20.45
2019-04-05T04:03:51.393Z,19.70
2019-04-05T04:05:52.779Z,19.82
2019-04-05T04:07:55.004Z,20.27
2019-04-05T04:09:56.450Z,21.48
2019-04-05T04:11:57.911Z,22.52
2019-04-05T04:13:59.333Z,19.85
2019-04-05T04:16:01.259Z,20.37
2019-04-05T04:18:02.694Z,19.37
2019-04-05T04:20:05.333Z,21.55
2019-04-05T04:22:19.294Z,20.70
2019-04-05T04:24:20.438Z,18.87
2019-04-05T04:26:21.587Z,22.40
2019-04-05T04:28:23.187Z,21.80
2019-04-05T04:32:27.341Z,19.52
2019-04-05T04:34:28.685Z,22.22
2019-04-05T04:36:29.828Z,22.25
2019-04-05T04:38:31.463Z,18.48
2019-04-05T04:42:34.230Z,21.23
2019-04-05T04:44:38.292Z,20.50
2019-04-05T04:46:39.751Z,20.85
2019-04-05T04:48:41.774Z,18.67
2019-04-05T04:50:46.674Z,20.85
2019-04-05T04:54:49.222Z,22.37
2019-04-05T04:56:50.470Z,22.48
2019-04-05T04:58:51.723Z,21.37
2019-04-05T05:00:53.320Z,22.13
2019-04-05T05:02:54.613Z,19.90
2019-04-05T05:04:56.562Z,21.27
2019-04-05T05:06:58.035Z,21.05
2019-04-05T05:08:59.201Z,19.92
2019-04-05T05:11:00.446Z,19.35
2019-04-05T05:13:02.022Z,20.12
2019-04-05T05:15:06.406Z,21.70
2019-04-05T05:17:07.754Z,17.12
2019-04-05T05:19:09.203Z,20.50
2019-04-05T05:21:10.444Z,19.92
2019-04-05T05:23:11.898Z,20.88
2019-04-05T05:25:13.454Z,19.92
2019-04-05T05:27:14.905Z,21.23
2019-04-05T05:29:17.037Z,19.17
2019-04-05T05:31:18.774Z,14.93
2019-04-05T05:33:20.327Z,19.48
2019-04-05T05:35:21.898Z,18.95
2019-04-05T05:39:24.899Z,18.20
2019-04-05T05:41:26.041Z,14.20
2019-04-05T05:43:27.201Z,19.25
2019-04-05T05:45:28.346Z,19.17
2019-04-05T05:47:29.966Z,19.48
2019-04-05T05:49:31.149Z,16.65
2019-04-05T05:51:32.502Z,16.85
2019-04-05T05:53:54.879Z,17.70
2019-04-05T05:55:56.270Z,18.12
2019-04-05T05:57:58.782Z,17.82
2019-04-05T06:00:01.147Z,16.60
2019-04-05T06:02:02.940Z,18.37
2019-04-05T06:04:04.482Z,17.32
2019-04-05T06:06:05.920Z,17.27
2019-04-05T06:08:07.077Z,18.10
2019-04-05T06:10:08.436Z,16.87
2019-04-05T06:12:09.678Z,17.50
2019-04-05T06:14:10.895Z,15.83
2019-04-05T06:16:12.042Z,17.75
2019-04-05T06:18:13.310Z,18.48
2019-04-05T06:20:14.934Z,18.75
2019-04-05T06:24:17.197Z,18.25
2019-04-05T06:26:18.647Z,19.27
2019-04-05T06:28:19.802Z,18.80
2019-04-05T06:30:20.954Z,19.55
2019-04-05T06:32:22.740Z,20.85
2019-04-05T06:34:23.962Z,19.62
2019-04-05T06:36:25.611Z,14.58
2019-04-05T06:38:26.858Z,18.82
2019-04-05T06:40:39.999Z,17.02
2019-04-05T06:42:31.079Z,16.55
2019-04-05T06:44:32.309Z,20.35
2019-04-05T06:46:33.463Z,18.67
2019-04-05T06:48:34.622Z,20.77
2019-04-05T06:50:35.786Z,19.75
2019-04-05T06:52:36.946Z,15.88
2019-04-05T06:54:38.637Z,19.12
2019-04-05T06:56:40.378Z,21.62
2019-04-05T06:58:41.867Z,18.85
2019-04-05T07:00:56.429Z,20.70
2019-04-05T07:02:46.779Z,21.30
2019-04-05T07:04:48.459Z,21.50
2019-04-05T07:08:53.937Z,20.45
2019-04-05T07:10:54.721Z,21.42
2019-04-05T07:14:57.928Z,16.45
2019-04-05T07:16:59.697Z,21.62
2019-04-05T07:19:01.743Z,23.35
2019-04-05T07:21:03.790Z,22.75
2019-04-05T07:23:05.400Z,23.55
2019-04-05T07:25:07.021Z,20.95
2019-04-05T07:27:08.493Z,22.42
2019-04-05T07:29:09.651Z,21.65
2019-04-05T07:31:11.186Z,21.40
2019-04-05T07:33:12.337Z,20.50
2019-04-05T07:35:13.469Z,21.40
2019-04-05T07:37:14.909Z,19.20
2019-04-05T07:39:16.057Z,19.50
2019-04-05T07:41:17.211Z,20.20
2019-04-05T07:43:18.361Z,17.37
2019-04-05T07:45:19.782Z,12.35
2019-04-05T07:47:20.932Z,16.85
2019-04-05T07:49:22.077Z,16.65
2019-04-05T07:51:23.506Z,16.37
2019-04-05T07:53:25.056Z,17.37
2019-04-05T07:55:26.505Z,17.07
2019-04-05T07:57:27.642Z,16.70
2019-04-05T07:59:29.045Z,21.82
2019-04-05T08:01:30.185Z,18.27
2019-04-05T08:03:31.442Z,16.48
2019-04-05T08:05:32.629Z,15.38
2019-04-05T08:07:37.600Z,14.38
2019-04-05T08:09:39.446Z,14.95
2019-04-05T08:11:42.887Z,16.50
2019-04-05T08:13:45.243Z,14.03
2019-04-05T08:15:46.705Z,15.05
2019-04-05T08:17:47.847Z,14.45
2019-04-05T08:19:49.291Z,15.58
2019-04-05T08:21:50.434Z,14.50
2019-04-05T08:23:51.619Z,15.03
2019-04-05T08:25:52.885Z,12.68
2019-04-05T08:27:54.025Z,13.15
2019-04-05T08:29:55.701Z,14.38
2019-04-05T08:33:57.875Z,12.58
2019-04-05T08:35:59.012Z,15.30
2019-04-05T08:38:00.340Z,12.63
2019-04-05T08:40:02.392Z,14.28
2019-04-05T08:42:03.949Z,13.05
2019-04-05T08:44:05.100Z,13.72
2019-04-05T08:46:06.306Z,14.47
2019-04-05T08:48:07.482Z,16.37
2019-04-05T08:50:08.881Z,16.55
2019-04-05T08:52:10.033Z,14.35
2019-04-05T08:54:11.173Z,14.23
2019-04-05T08:56:12.311Z,14.28
2019-04-05T08:58:13.455Z,12.20
2019-04-05T09:00:15.251Z,14.15
2019-04-05T09:02:16.654Z,12.40
2019-04-05T09:04:17.804Z,14.33
2019-04-05T09:06:18.951Z,13.45
2019-04-05T09:08:21.482Z,14.63
2019-04-05T09:10:22.837Z,14.47
2019-04-05T09:12:23.978Z,11.25
2019-04-05T09:14:25.180Z,12.07
2019-04-05T09:16:26.319Z,13.75
2019-04-05T09:18:27.464Z,12.55
2019-04-05T09:20:28.801Z,14.05
2019-04-05T09:22:30.061Z,13.70
2019-04-05T09:24:31.214Z,14.78
2019-04-05T09:26:32.351Z,11.10
2019-04-05T09:28:33.490Z,13.40
2019-04-05T09:30:34.650Z,13.93
2019-04-05T09:32:36.669Z,15.05
2019-04-05T09:34:37.929Z,14.13
2019-04-05T09:36:39.133Z,13.83
2019-04-05T09:38:40.341Z,14.03
2019-04-05T09:40:42.069Z,14.58
2019-04-05T09:42:43.614Z,14.15
2019-04-05T09:44:44.848Z,15.88
2019-04-05T09:46:49.486Z,15.03
2019-04-05T09:48:49.471Z,15.25
2019-04-05T09:50:50.612Z,15.30
2019-04-05T09:52:51.847Z,10.75
2019-04-05T09:54:53.014Z,14.13
2019-04-05T09:56:56.664Z,15.65
2019-04-05T09:58:57.246Z,16.27
2019-04-05T10:00:58.773Z,15.72
2019-04-05T10:02:59.909Z,15.78
2019-04-05T10:05:01.269Z,15.80
2019-04-05T10:07:03.001Z,16.70
2019-04-05T10:11:06.673Z,16.23
2019-04-05T10:13:09.791Z,14.68
2019-04-05T10:15:11.665Z,15.80
2019-04-05T10:17:12.878Z,16.05
2019-04-05T10:19:14.366Z,14.98
2019-04-05T10:21:15.966Z,14.33
2019-04-05T10:23:17.418Z,15.58
2019-04-05T10:28:24.430Z,14.70
2019-04-05T10:30:25.847Z,15.53
2019-04-05T10:32:27.055Z,15.20
2019-04-05T10:34:28.211Z,15.83
2019-04-05T10:36:29.369Z,14.75
2019-04-05T10:38:30.514Z,15.65
2019-04-05T10:40:31.674Z,14.10
2019-04-05T10:42:35.058Z,14.43
2019-04-05T10:44:36.202Z,15.15
2019-04-05T10:46:37.386Z,16.65
2019-04-05T10:48:40.790Z,18.87
2019-04-05T10:50:41.938Z,15.03
2019-04-05T10:52:43.142Z,15.60
2019-04-05T10:54:44.611Z,15.25
2019-04-05T10:56:58.978Z,17.77
2019-04-05T10:59:00.205Z,16.85
2019-04-05T11:01:01.490Z,16.93
2019-04-05T11:03:02.888Z,15.88
2019-04-05T11:05:04.447Z,14.78
2019-04-05T11:07:05.890Z,16.27
2019-04-05T11:09:07.443Z,15.78
2019-04-05T11:15:46.204Z,16.17
2019-04-05T11:17:47.405Z,15.23
2019-04-05T11:19:48.653Z,16.57
2019-04-05T11:23:55.729Z,14.93
2019-04-05T11:25:57.711Z,16.67
2019-04-05T11:27:59.202Z,16.75
2019-04-05T11:30:00.609Z,13.25
2019-04-05T11:32:01.938Z,14.65
2019-04-05T11:34:03.182Z,13.78
2019-04-05T11:36:04.423Z,15.68
2019-04-05T11:38:05.561Z,16.10
2019-04-05T11:40:08.059Z,15.83
2019-04-05T11:42:09.496Z,14.47
2019-04-05T11:44:10.806Z,13.75
2019-04-05T11:46:13.031Z,13.80
2019-04-05T11:48:14.274Z,14.30
2019-04-05T11:50:15.516Z,14.75
2019-04-05T11:52:17.042Z,16.48
2019-04-05T11:54:18.498Z,16.17
2019-04-05T11:58:21.920Z,13.90
2019-04-05T12:00:25.401Z,15.93
2019-04-05T12:02:37.828Z,15.35
2019-04-05T12:04:39.072Z,13.68
2019-04-05T12:06:40.275Z,13.48
2019-04-05T12:08:41.413Z,13.78
2019-04-05T12:10:42.633Z,16.10
2019-04-05T12:12:43.792Z,16.27
2019-04-05T12:14:44.992Z,15.40
2019-04-05T12:16:46.206Z,16.62
2019-04-05T12:18:47.435Z,14.47
2019-04-05T12:20:58.958Z,15.60
2019-04-05T12:22:52.678Z,16.07
2019-04-05T12:24:54.133Z,17.25
2019-04-05T12:26:55.273Z,16.15
2019-04-05T12:28:56.541Z,13.50
2019-04-05T12:30:57.734Z,14.78
2019-04-05T12:33:12.669Z,13.10
2019-04-05T12:35:04.554Z,17.07
2019-04-05T12:37:05.966Z,16.35
2019-04-05T12:39:08.179Z,16.67
2019-04-05T12:41:10.964Z,14.87
2019-04-05T12:43:13.568Z,16.20
2019-04-05T12:45:15.612Z,15.32
2019-04-05T12:47:16.807Z,16.10
2019-04-05T12:49:17.942Z,18.25
2019-04-05T12:51:19.507Z,15.03
2019-04-05T12:55:24.107Z,16.73
2019-04-05T12:57:27.871Z,17.50
2019-04-05T12:59:28.805Z,17.02
2019-04-05T13:01:29.953Z,14.93
2019-04-05T13:03:31.341Z,13.43
2019-04-05T13:05:33.898Z,17.25
2019-04-05T13:07:35.365Z,17.80
2019-04-05T13:11:37.896Z,17.77
2019-04-05T13:13:39.055Z,15.80
2019-04-05T13:15:40.640Z,17.32
2019-04-05T13:19:43.369Z,14.47
2019-04-05T13:21:44.513Z,18.48
2019-04-05T13:23:45.998Z,19.32
2019-04-05T13:25:47.138Z,18.80
2019-04-05T13:27:48.284Z,19.55
2019-04-05T13:29:49.719Z,18.57
2019-04-05T13:33:55.165Z,16.57
2019-04-05T13:35:55.565Z,16.77
2019-04-05T13:37:58.543Z,11.73
2019-04-05T13:40:00.089Z,17.92
2019-04-05T13:42:02.514Z,20.00
2019-04-05T13:44:03.862Z,13.88
2019-04-05T13:46:05.002Z,15.60
2019-04-05T13:48:08.461Z,15.23
2019-04-05T13:50:11.532Z,15.23
2019-04-05T13:52:13.442Z,15.68
2019-04-05T13:56:16.111Z,17.92
2019-04-05T13:58:17.564Z,15.55
2019-04-05T14:00:19.834Z,18.02
2019-04-05T14:02:21.651Z,16.12
2019-04-05T14:04:22.998Z,16.23
2019-04-05T14:06:24.252Z,16.02
2019-04-05T14:08:25.414Z,14.00
2019-04-05T14:10:26.630Z,16.75
2019-04-05T14:12:28.103Z,17.07
2019-04-05T14:14:31.129Z,16.48
2019-04-05T14:16:33.505Z,14.50
2019-04-05T14:18:34.998Z,15.32
2019-04-05T14:22:37.378Z,13.72
2019-04-05T14:24:38.925Z,16.37
2019-04-05T14:26:40.246Z,16.48
2019-04-05T14:28:41.502Z,13.53
2019-04-05T14:30:42.654Z,14.93
2019-04-05T14:32:43.897Z,14.20
2019-04-05T14:34:45.121Z,15.43
2019-04-05T14:36:46.262Z,16.17
2019-04-05T14:40:49.875Z,16.45
2019-04-05T14:42:52.973Z,15.90
2019-04-05T14:46:57.789Z,13.55
2019-04-05T14:49:00.631Z,16.50
2019-04-05T14:51:02.449Z,16.05
2019-04-05T14:53:04.117Z,15.28
2019-04-05T14:57:06.690Z,13.62
2019-04-05T14:59:08.239Z,13.15
2019-04-05T15:01:10.608Z,13.48
2019-04-05T15:03:12.031Z,13.15
2019-04-05T15:05:14.429Z,13.40
2019-04-05T15:07:20.935Z,13.05
2019-04-05T15:09:25.563Z,12.75
2019-04-05T15:11:29.498Z,12.03
2019-04-05T15:13:33.447Z,14.63
2019-04-05T15:15:35.250Z,13.98
2019-04-05T15:17:47.339Z,14.35
2019-04-05T15:19:40.001Z,14.83
2019-04-05T15:21:41.483Z,13.68
2019-04-05T15:23:45.484Z,14.03
2019-04-05T15:25:49.445Z,12.88
2019-04-05T15:27:55.127Z,13.38
2019-04-05T15:29:58.094Z,14.00
2019-04-05T15:32:01.032Z,13.85
2019-04-05T15:34:02.529Z,13.45
2019-04-05T15:38:05.376Z,12.80
2019-04-05T15:40:07.491Z,13.28
2019-04-05T15:42:09.290Z,12.70
2019-04-05T15:44:10.821Z,13.45
2019-04-05T15:46:12.057Z,12.88
2019-04-05T15:48:13.205Z,12.75
2019-04-05T15:50:14.549Z,13.25
2019-04-05T15:52:19.001Z,12.40
2019-04-05T15:54:18.778Z,13.93
2019-04-05T15:56:19.913Z,11.45
2019-04-05T15:58:21.176Z,12.30
2019-04-05T16:00:38.434Z,10.82
2019-04-05T16:02:39.580Z,10.72
2019-04-05T16:04:41.022Z,11.97
2019-04-05T16:06:42.469Z,12.37
2019-04-05T16:08:43.621Z,12.60
2019-04-05T16:10:45.697Z,13.03
2019-04-05T16:12:47.006Z,12.73
2019-04-05T16:14:48.462Z,12.45
2019-04-05T16:16:49.596Z,13.83
2019-04-05T16:18:51.265Z,12.50
2019-04-05T16:20:52.701Z,14.00
2019-04-05T16:22:53.841Z,12.93
2019-04-05T16:24:55.601Z,13.15
2019-04-05T16:26:58.646Z,12.88
2019-04-05T16:29:00.604Z,13.65
2019-04-05T16:31:03.568Z,12.10
2019-04-05T16:33:04.703Z,13.75
2019-04-05T16:35:06.046Z,12.18
2019-04-05T16:37:07.286Z,13.18
2019-04-05T16:39:10.331Z,13.75
2019-04-05T16:41:16.261Z,13.00
2019-04-05T16:43:17.730Z,14.18
2019-04-05T16:45:18.977Z,12.98
2019-04-05T16:47:20.413Z,12.93
2019-04-05T16:49:21.570Z,15.32
2019-04-05T16:51:22.778Z,12.90
2019-04-05T16:53:23.912Z,15.00
2019-04-05T16:55:25.380Z,15.00
2019-04-05T16:57:26.682Z,15.25
2019-04-05T16:59:27.932Z,14.70
2019-04-05T17:01:29.096Z,14.05
2019-04-05T17:03:30.237Z,15.18
2019-04-05T17:05:31.379Z,16.90
2019-04-05T17:07:32.712Z,16.12
2019-04-05T17:09:33.861Z,14.50
2019-04-05T17:11:35.194Z,15.85
2019-04-05T17:13:36.389Z,15.72
2019-04-05T17:15:39.517Z,14.50
2019-04-05T17:17:40.690Z,15.83
2019-04-05T17:19:41.905Z,14.85
2019-04-05T17:21:43.041Z,17.80
2019-04-05T17:23:44.181Z,17.32
2019-04-05T17:25:45.365Z,15.95
2019-04-05T17:27:46.765Z,17.98
2019-04-05T17:29:47.926Z,16.05
2019-04-05T17:31:49.064Z,16.40
2019-04-05T17:33:50.637Z,15.72
2019-04-05T17:35:52.063Z,17.55
2019-04-05T17:37:53.195Z,16.48
2019-04-05T17:39:54.442Z,15.43
2019-04-05T17:41:56.169Z,15.68
2019-04-05T17:45:58.332Z,14.63
2019-04-05T17:47:59.825Z,15.15
2019-04-05T17:50:01.167Z,13.75
2019-04-05T17:54:04.332Z,18.55
2019-04-05T17:56:05.921Z,15.30
2019-04-05T17:58:07.863Z,15.30
2019-04-05T18:00:11.129Z,15.45
2019-04-05T18:02:13.122Z,16.17
2019-04-05T18:04:14.262Z,16.52
2019-04-05T18:06:15.716Z,18.50
2019-04-05T18:08:16.858Z,16.20
2019-04-05T18:10:18.505Z,17.35
2019-04-05T18:14:20.856Z,19.10
2019-04-05T18:16:22.100Z,18.37
2019-04-05T18:18:23.246Z,17.52
2019-04-05T18:20:24.397Z,20.40
2019-04-05T18:22:25.542Z,19.42
2019-04-05T18:24:26.679Z,18.70
2019-04-05T18:26:27.898Z,16.57
2019-04-05T18:28:29.236Z,17.82
2019-04-05T18:30:30.684Z,19.65
2019-04-05T18:32:31.923Z,17.85
2019-04-05T18:34:33.076Z,18.73
2019-04-05T18:36:34.256Z,18.32
2019-04-05T18:38:35.898Z,20.35
2019-04-05T18:42:41.793Z,19.55
2019-04-05T18:44:43.238Z,20.52
2019-04-05T18:46:44.436Z,20.75
2019-04-05T18:48:45.585Z,21.52
2019-04-05T18:50:48.548Z,21.62
2019-04-05T18:52:49.898Z,21.82
2019-04-05T18:54:51.038Z,20.55
2019-04-05T18:56:52.199Z,15.58
2019-04-05T18:58:53.340Z,20.30
2019-04-05T19:00:55.001Z,23.10
2019-04-05T19:04:57.346Z,20.37
2019-04-05T19:06:58.498Z,23.15
2019-04-05T19:08:59.969Z,25.30
2019-04-05T19:11:01.220Z,21.55
2019-04-05T19:13:02.353Z,22.37
2019-04-05T19:15:05.689Z,22.17
2019-04-05T19:17:06.849Z,24.95
2019-04-05T19:19:07.992Z,26.90
2019-04-05T19:21:09.153Z,26.33
2019-04-05T19:23:10.908Z,25.10
2019-04-05T19:25:12.038Z,26.65
2019-04-05T19:27:13.481Z,24.90
2019-04-05T19:29:14.660Z,24.45
2019-04-05T19:49:45.042Z,26.07
2019-04-05T19:51:46.190Z,26.07
2019-04-05T19:53:47.337Z,26.93
2019-04-05T19:55:48.786Z,29.25
2019-04-05T19:57:50.237Z,23.70
2019-04-05T19:59:51.388Z,29.20
2019-04-05T20:01:52.605Z,27.95
2019-04-05T20:03:53.748Z,27.00
2019-04-05T20:05:54.890Z,27.73
2019-04-05T20:07:56.028Z,24.10
2019-04-05T20:09:57.473Z,27.65
2019-04-05T20:11:58.875Z,27.10
2019-04-05T20:14:00.009Z,28.77
2019-04-05T20:16:01.193Z,31.23
2019-04-05T20:20:05.672Z,25.02
2019-04-05T20:22:07.003Z,25.25
2019-04-05T20:24:14.030Z,26.80
2019-04-05T20:26:12.360Z,26.62
2019-04-05T20:28:13.589Z,31.90
2019-04-05T20:30:15.219Z,29.05
2019-04-05T20:32:16.636Z,29.23
2019-04-05T20:34:17.770Z,31.17
2019-04-05T20:36:18.914Z,32.30
2019-04-05T20:38:20.088Z,28.65
2019-04-05T20:40:21.226Z,30.02
2019-04-05T20:42:22.372Z,21.02
2019-04-05T20:44:23.509Z,28.20
2019-04-05T20:46:24.904Z,30.68
2019-04-05T20:48:26.058Z,28.42
2019-04-05T20:50:27.217Z,29.42
2019-04-05T20:52:28.373Z,27.50
2019-04-05T20:54:29.621Z,30.88
2019-04-05T20:56:30.758Z,32.28
2019-04-05T20:58:31.910Z,31.93
2019-04-05T21:00:33.347Z,34.33
2019-04-05T21:02:34.681Z,26.82
2019-04-05T21:04:35.937Z,30.40
2019-04-05T21:06:37.491Z,28.35
2019-04-05T21:08:38.647Z,32.55
2019-04-05T21:10:40.134Z,35.52
2019-04-05T21:12:41.288Z,35.17
2019-04-05T21:14:42.757Z,33.48
2019-04-05T21:16:44.197Z,30.75
2019-04-05T21:18:45.428Z,30.95
2019-04-05T21:20:46.569Z,31.20
2019-04-05T21:22:47.912Z,29.92
2019-04-05T21:24:52.093Z,31.12
2019-04-05T21:26:53.365Z,33.02
2019-04-05T21:28:55.244Z,31.35
2019-04-05T21:30:56.478Z,30.35
2019-04-05T21:32:57.635Z,28.75
2019-04-05T21:35:00.676Z,30.15
2019-04-05T21:37:02.149Z,32.45
2019-04-05T21:39:05.685Z,32.45
2019-04-05T21:41:07.108Z,27.77
2019-04-05T21:43:08.868Z,33.80
2019-04-05T21:45:10.198Z,31.25
2019-04-05T21:47:12.332Z,29.07
2019-04-05T21:49:13.599Z,31.02
2019-04-05T21:51:14.728Z,28.40
2019-04-05T21:53:17.677Z,31.52
2019-04-05T21:55:18.819Z,27.80
2019-04-05T21:57:25.952Z,29.60
2019-04-05T21:59:27.541Z,27.37
2019-04-05T22:01:30.403Z,31.00
2019-04-05T22:03:31.947Z,31.33
2019-04-05T22:05:35.479Z,31.40
2019-04-05T22:07:37.004Z,32.00
2019-04-05T22:09:40.609Z,31.12
2019-04-05T22:11:42.368Z,32.40
2019-04-05T22:13:44.100Z,32.35
2019-04-05T22:15:45.666Z,33.70
2019-04-05T22:17:47.070Z,31.87
2019-04-05T22:19:48.750Z,32.48
2019-04-05T22:23:51.433Z,34.90
2019-04-05T22:25:53.608Z,34.30
2019-04-05T22:27:55.303Z,33.65
2019-04-05T22:29:56.844Z,35.63
2019-04-05T22:31:58.318Z,33.48
2019-04-05T22:33:59.758Z,32.45
2019-04-05T22:36:00.954Z,36.15
2019-04-05T22:38:02.176Z,38.60
2019-04-05T22:40:05.010Z,34.40
2019-04-05T22:42:06.146Z,37.42
2019-04-05T22:44:07.405Z,34.30
2019-04-05T22:46:08.536Z,36.80
2019-04-05T22:48:10.911Z,36.50
2019-04-05T22:50:12.347Z,38.28
2019-04-05T22:52:13.485Z,39.25
2019-04-05T22:54:14.695Z,37.25
2019-04-05T22:56:15.894Z,37.48
2019-04-05T22:58:17.425Z,37.28
2019-04-05T23:00:19.402Z,33.13
2019-04-05T23:02:20.634Z,35.75
2019-04-05T23:04:21.788Z,37.15
2019-04-05T23:06:22.985Z,37.17
2019-04-05T23:08:24.038Z,36.60
2019-04-05T23:12:27.053Z,38.13
2019-04-05T23:14:28.605Z,38.92
2019-04-05T23:16:30.029Z,38.13
2019-04-05T23:18:31.178Z,37.80
2019-04-05T23:20:32.318Z,42.00
2019-04-05T23:22:33.773Z,39.18
2019-04-05T23:24:35.004Z,38.42
2019-04-05T23:26:36.134Z,39.05
2019-04-05T23:28:37.282Z,37.38
2019-04-05T23:30:38.421Z,38.73
2019-04-05T23:32:39.622Z,37.95
2019-04-05T23:34:41.117Z,35.90
2019-04-05T23:36:42.559Z,38.40
2019-04-05T23:38:43.942Z,37.48
2019-04-05T23:40:45.287Z,38.20
2019-04-05T23:42:46.739Z,37.03
2019-04-05T23:44:49.831Z,40.58
2019-04-05T23:46:52.719Z,36.85
2019-04-05T23:48:54.353Z,41.92
2019-04-05T23:50:55.757Z,40.28
2019-04-05T23:52:57.769Z,38.50
2019-04-05T23:54:59.276Z,40.67
2019-04-05T23:57:03.108Z,37.25
2019-04-05T23:59:04.884Z,39.78
